createdAt,value
2022-12-09T00:00:52.153Z,84.51
2022-12-09T00:04:02.229Z,84.36
2022-12-09T00:07:17.523Z,85.03
2022-12-09T00:10:26.294Z,85.43
2022-12-09T00:13:35.562Z,85.82
2022-12-09T00:16:50.381Z,85.82
2022-12-09T00:19:52.685Z,85.91
2022-12-09T00:23:07.088Z,85.79
2022-12-09T00:26:16.393Z,85.62
2022-12-09T00:29:24.926Z,86.04
2022-12-09T00:32:33.364Z,85.74
2022-12-09T00:35:41.627Z,85.50
2022-12-09T00:38:50.202Z,85.93
2022-12-09T00:42:05.084Z,85.82
2022-12-09T00:45:08.001Z,85.85
2022-12-09T00:48:23.191Z,86.58
2022-12-09T00:51:25.786Z,86.57
2022-12-09T00:54:40.111Z,86.90
2022-12-09T00:57:55.082Z,86.73
2022-12-09T01:00:56.963Z,86.92
2022-12-09T01:04:13.332Z,86.81
2022-12-09T01:07:21.663Z,86.37
2022-12-09T01:10:36.354Z,85.98
2022-12-09T01:13:44.733Z,86.22
2022-12-09T01:16:53.446Z,85.81
2022-12-09T01:20:02.181Z,85.67
2022-12-09T01:23:11.090Z,85.66
2022-12-09T01:26:20.438Z,86.01
2022-12-09T01:29:35.211Z,86.09
2022-12-09T01:32:44.141Z,86.19
2022-12-09T01:35:52.676Z,86.58
2022-12-09T01:39:02.057Z,86.37
2022-12-09T01:42:19.148Z,86.27
2022-12-09T01:45:45.055Z,86.50
2022-12-09T01:48:53.758Z,86.57
2022-12-09T01:52:18.123Z,86.38
2022-12-09T01:55:19.849Z,86.70
2022-12-09T01:58:36.237Z,86.53
2022-12-09T02:01:46.131Z,86.56
2022-12-09T02:05:02.559Z,86.93
2022-12-09T02:08:15.004Z,87.31
2022-12-09T02:11:46.204Z,86.96
2022-12-09T02:15:03.515Z,87.09
2022-12-09T02:18:48.384Z,87.11
2022-12-09T02:21:58.808Z,87.36
2022-12-09T02:25:34.318Z,87.11
2022-12-09T02:29:09.138Z,86.86
2022-12-09T02:32:33.070Z,87.17
2022-12-09T02:36:02.191Z,86.90
2022-12-09T02:39:11.214Z,86.64
2022-12-09T02:42:24.240Z,86.80
2022-12-09T02:45:40.351Z,86.77
2022-12-09T02:48:47.935Z,86.86
2022-12-09T02:52:05.130Z,86.82
2022-12-09T02:55:17.749Z,86.52
2022-12-09T02:58:26.093Z,86.64
2022-12-09T03:01:51.342Z,87.06
2022-12-09T03:05:15.161Z,87.22
2022-12-09T03:08:44.824Z,86.88
2022-12-09T03:11:54.358Z,87.34
2022-12-09T03:15:06.591Z,87.84
2022-12-09T03:18:20.285Z,87.76
2022-12-09T03:21:38.284Z,87.70
2022-12-09T03:24:55.262Z,87.95
2022-12-09T03:28:09.314Z,87.76
2022-12-09T03:31:21.510Z,87.88
2022-12-09T03:34:35.482Z,87.95
2022-12-09T03:37:51.283Z,88.10
2022-12-09T03:41:10.840Z,88.40
2022-12-09T03:44:32.448Z,88.71
2022-12-09T03:47:47.515Z,89.30
2022-12-09T03:51:05.058Z,89.60
2022-12-09T03:54:26.375Z,89.57
2022-12-09T03:57:48.448Z,89.62
2022-12-09T04:00:57.400Z,90.20
2022-12-09T04:04:06.441Z,90.44
2022-12-09T04:07:28.174Z,91.08
2022-12-09T04:10:37.177Z,91.54
2022-12-09T04:13:46.153Z,92.56
2022-12-09T04:17:01.292Z,92.95
2022-12-09T04:20:11.747Z,93.06
2022-12-09T04:23:21.041Z,93.12
2022-12-09T04:26:30.460Z,93.07
2022-12-09T04:29:38.730Z,92.87
2022-12-09T04:32:47.638Z,92.81
2022-12-09T04:36:03.697Z,92.33
2022-12-09T04:39:18.250Z,92.82
2022-12-09T04:42:20.497Z,91.95
2022-12-09T04:45:35.227Z,91.64
2022-12-09T04:48:46.406Z,92.10
2022-12-09T04:51:55.211Z,92.20
2022-12-09T04:55:10.233Z,92.13
2022-12-09T04:58:12.190Z,91.93
2022-12-09T05:01:31.483Z,92.36
2022-12-09T05:04:46.669Z,92.82
2022-12-09T05:07:49.228Z,92.75
2022-12-09T05:11:08.564Z,92.50
2022-12-09T05:14:23.188Z,92.47
2022-12-09T05:17:25.502Z,92.80
2022-12-09T05:20:41.309Z,92.61
2022-12-09T05:23:56.329Z,91.61
2022-12-09T05:26:58.275Z,91.29
2022-12-09T05:30:14.778Z,91.34
2022-12-09T05:33:17.501Z,91.45
2022-12-09T05:36:33.567Z,91.68
2022-12-09T05:39:42.462Z,91.79
2022-12-09T05:42:51.312Z,91.79
2022-12-09T05:46:01.896Z,91.78
2022-12-09T05:49:10.504Z,91.85
2022-12-09T05:52:20.137Z,91.88
2022-12-09T05:55:28.355Z,91.65
2022-12-09T05:58:37.408Z,92.58
2022-12-09T06:01:46.393Z,92.22
2022-12-09T06:04:58.090Z,92.13
2022-12-09T06:08:07.437Z,92.16
2022-12-09T06:11:18.951Z,91.80
2022-12-09T06:14:34.332Z,91.83
2022-12-09T06:17:43.374Z,91.84
2022-12-09T06:20:51.947Z,91.87
2022-12-09T06:24:00.678Z,91.84
2022-12-09T06:27:09.246Z,92.27
2022-12-09T06:30:24.694Z,92.40
2022-12-09T06:37:08.672Z,93.63
2022-12-09T06:40:18.660Z,93.62
2022-12-09T06:43:27.115Z,93.35
2022-12-09T06:46:35.368Z,94.02
2022-12-09T06:49:51.739Z,94.58
2022-12-09T06:53:00.246Z,94.71
2022-12-09T06:56:12.711Z,94.67
2022-12-09T06:59:28.728Z,94.57
2022-12-09T07:02:35.500Z,95.13
2022-12-09T07:05:52.599Z,95.00
2022-12-09T07:09:17.828Z,94.70
2022-12-09T07:12:23.055Z,94.17
2022-12-09T07:15:38.661Z,92.41
2022-12-09T07:18:47.696Z,89.58
2022-12-09T07:21:57.316Z,92.39
2022-12-09T07:25:13.773Z,94.74
2022-12-09T07:28:16.251Z,95.54
2022-12-09T07:31:35.561Z,96.97
2022-12-09T07:34:41.400Z,97.15
2022-12-09T07:37:57.313Z,97.29
2022-12-09T07:41:08.261Z,97.42
2022-12-09T07:44:18.694Z,97.90
2022-12-09T07:47:28.191Z,98.35
2022-12-09T07:50:37.684Z,98.53
2022-12-09T07:53:47.157Z,98.47
2022-12-09T07:56:56.592Z,98.37
2022-12-09T08:00:14.703Z,98.89
2022-12-09T08:03:24.740Z,99.00
2022-12-09T08:06:42.737Z,98.69
2022-12-09T08:09:58.763Z,98.46
2022-12-09T08:13:07.365Z,98.98
2022-12-09T08:16:29.405Z,99.19
2022-12-09T08:19:41.524Z,98.95
2022-12-09T08:22:52.411Z,98.97
2022-12-09T08:26:03.318Z,99.14
2022-12-09T08:29:14.231Z,98.59
2022-12-09T08:32:23.509Z,96.09
2022-12-09T08:35:31.985Z,95.96
2022-12-09T08:38:40.702Z,94.40
2022-12-09T08:41:55.718Z,93.35
2022-12-09T08:45:04.746Z,93.82
2022-12-09T08:48:13.533Z,91.32
2022-12-09T08:51:22.828Z,85.87
2022-12-09T08:54:37.638Z,87.02
2022-12-09T08:57:39.764Z,83.84
2022-12-09T09:00:55.593Z,86.84
2022-12-09T09:04:00.528Z,88.10
2022-12-09T09:07:17.689Z,90.92
2022-12-09T09:10:34.225Z,92.95
2022-12-09T09:13:45.170Z,94.86
2022-12-09T09:16:54.441Z,95.01
2022-12-09T09:20:03.187Z,95.53
2022-12-09T09:23:19.061Z,95.55
2022-12-09T09:26:25.406Z,96.43
2022-12-09T09:29:41.834Z,96.88
2022-12-09T09:32:45.666Z,97.35
2022-12-09T09:36:10.205Z,97.31
2022-12-09T09:39:26.786Z,97.78
2022-12-09T09:42:37.166Z,94.90
2022-12-09T09:45:52.916Z,93.71
2022-12-09T09:49:03.130Z,94.20
2022-12-09T09:52:31.757Z,93.64
2022-12-09T09:55:43.993Z,94.85
2022-12-09T09:59:15.375Z,94.76
2022-12-09T10:02:32.050Z,95.70
2022-12-09T10:06:05.908Z,95.12
2022-12-09T10:09:32.461Z,95.37
2022-12-09T10:13:09.654Z,94.37
2022-12-09T10:16:44.793Z,95.23
2022-12-09T10:20:08.396Z,94.96
2022-12-09T10:23:29.452Z,92.96
2022-12-09T10:26:39.486Z,89.88
2022-12-09T10:30:07.500Z,91.77
2022-12-09T10:33:14.926Z,93.54
2022-12-09T10:36:36.082Z,94.84
2022-12-09T10:39:38.842Z,91.60
2022-12-09T10:42:58.804Z,92.47
2022-12-09T10:46:27.636Z,93.31
2022-12-09T10:49:36.990Z,95.30
2022-12-09T10:52:52.060Z,96.21
2022-12-09T10:56:09.542Z,96.69
2022-12-09T10:59:22.507Z,97.01
2022-12-09T11:02:39.756Z,97.15
2022-12-09T11:05:56.513Z,97.05
2022-12-09T11:09:31.022Z,97.12
2022-12-09T11:12:42.595Z,96.82
2022-12-09T11:15:53.632Z,96.54
2022-12-09T11:19:08.531Z,95.68
2022-12-09T11:22:24.025Z,94.29
2022-12-09T11:25:42.599Z,93.55
2022-12-09T11:29:10.696Z,94.53
2022-12-09T11:32:19.654Z,93.85
2022-12-09T11:35:38.507Z,94.87
2022-12-09T11:38:49.934Z,94.92
2022-12-09T11:42:03.410Z,94.94
2022-12-09T11:45:27.358Z,94.95
2022-12-09T11:48:43.809Z,95.11
2022-12-09T11:52:05.722Z,93.59
2022-12-09T11:55:28.439Z,93.74
2022-12-09T11:59:04.433Z,94.59
2022-12-09T12:02:26.305Z,93.74
2022-12-09T12:05:47.478Z,94.47
2022-12-09T12:08:55.078Z,95.62
2022-12-09T12:12:23.527Z,96.20
2022-12-09T12:15:40.462Z,96.52
2022-12-09T12:19:03.510Z,97.34
2022-12-09T12:22:36.516Z,97.21
2022-12-09T12:25:58.044Z,95.60
2022-12-09T12:29:31.592Z,95.83
2022-12-09T12:33:40.880Z,88.17
2022-12-09T12:36:49.117Z,91.59
2022-12-09T12:40:21.930Z,92.95
2022-12-09T12:44:03.146Z,94.39
2022-12-09T12:47:28.445Z,95.39
2022-12-09T12:51:00.471Z,96.14
2022-12-09T12:54:38.994Z,95.26
2022-12-09T12:58:23.441Z,96.25
2022-12-09T13:01:41.855Z,92.84
2022-12-09T13:04:56.538Z,93.29
2022-12-09T13:08:31.469Z,88.95
2022-12-09T13:11:39.405Z,90.43
2022-12-09T13:15:01.430Z,91.78
2022-12-09T13:18:18.553Z,93.39
2022-12-09T13:21:33.570Z,94.50
2022-12-09T13:24:58.442Z,95.90
2022-12-09T13:28:17.447Z,96.33
2022-12-09T13:31:32.641Z,97.09
2022-12-09T13:34:46.617Z,97.54
2022-12-09T13:38:05.441Z,98.06
2022-12-09T13:41:42.462Z,98.37
2022-12-09T13:44:51.585Z,98.82
2022-12-09T13:48:25.786Z,99.44
2022-12-09T13:51:51.492Z,99.61
2022-12-09T13:55:06.413Z,99.64
2022-12-09T13:58:31.397Z,99.26
2022-12-09T14:01:59.552Z,98.90
2022-12-09T14:05:14.590Z,98.91
2022-12-09T14:08:33.428Z,98.25
2022-12-09T14:11:51.450Z,98.57
2022-12-09T14:15:36.305Z,98.35
2022-12-09T14:18:52.815Z,98.48
2022-12-09T14:22:14.674Z,98.42
2022-12-09T14:25:52.476Z,97.90
2022-12-09T14:29:02.486Z,98.36
2022-12-09T14:32:38.547Z,98.50
2022-12-09T14:35:51.127Z,98.61
2022-12-09T14:39:25.810Z,98.60
2022-12-09T14:43:01.485Z,98.74
2022-12-09T14:46:30.131Z,98.61
2022-12-09T14:49:48.923Z,98.36
2022-12-09T14:53:08.519Z,98.50
2022-12-09T14:56:25.502Z,98.33
2022-12-09T14:59:35.490Z,98.37
2022-12-09T15:02:57.397Z,98.47
2022-12-09T15:06:23.502Z,98.18
2022-12-09T15:09:31.902Z,98.36
2022-12-09T15:12:52.494Z,98.25
2022-12-09T15:15:54.864Z,97.83
2022-12-09T15:19:09.599Z,97.87
2022-12-09T15:22:21.734Z,97.51
2022-12-09T15:25:37.510Z,97.70
2022-12-09T15:28:47.803Z,97.86
2022-12-09T15:32:03.597Z,97.97
2022-12-09T15:35:19.997Z,97.68
2022-12-09T15:38:32.738Z,98.10
2022-12-09T15:41:53.569Z,98.41
2022-12-09T15:45:13.526Z,98.29
2022-12-09T15:48:27.406Z,98.89
2022-12-09T15:51:37.566Z,98.63
2022-12-09T15:54:47.406Z,98.42
2022-12-09T15:57:59.528Z,98.45
2022-12-09T16:01:15.554Z,98.74
2022-12-09T16:04:21.190Z,98.65
2022-12-09T16:07:35.593Z,98.71
2022-12-09T16:10:48.181Z,98.84
2022-12-09T16:14:05.518Z,98.46
2022-12-09T16:17:27.535Z,98.47
2022-12-09T16:20:42.524Z,98.19
2022-12-09T16:23:56.560Z,98.02
2022-12-09T16:27:06.257Z,97.45
2022-12-09T16:30:26.578Z,97.40
2022-12-09T16:33:45.581Z,97.71
2022-12-09T16:36:56.784Z,97.99
2022-12-09T16:40:41.594Z,97.73
2022-12-09T16:43:56.029Z,97.73
2022-12-09T16:47:16.595Z,97.87
2022-12-09T16:50:38.616Z,97.83
2022-12-09T16:53:45.402Z,97.84
2022-12-09T16:57:02.558Z,97.55
2022-12-09T17:00:04.915Z,98.16
2022-12-09T17:03:29.581Z,97.82
2022-12-09T17:06:31.693Z,97.60
2022-12-09T17:09:53.638Z,97.66
2022-12-09T17:12:55.493Z,97.83
2022-12-09T17:16:12.688Z,97.51
2022-12-09T17:19:15.568Z,98.07
2022-12-09T17:22:31.587Z,98.23
2022-12-09T17:25:33.505Z,97.77
2022-12-09T17:28:49.578Z,97.65
2022-12-09T17:31:58.672Z,96.98
2022-12-09T17:35:12.375Z,97.21
2022-12-09T17:38:21.597Z,97.36
2022-12-09T17:41:30.294Z,97.79
2022-12-09T17:44:38.613Z,98.11
2022-12-09T17:47:48.882Z,98.21
2022-12-09T17:50:57.573Z,98.29
2022-12-09T17:54:12.626Z,98.47
2022-12-09T17:57:20.610Z,98.30
2022-12-09T18:00:29.279Z,98.40
2022-12-09T18:03:55.638Z,99.04
2022-12-09T18:07:05.195Z,98.82
2022-12-09T18:10:26.670Z,98.85
2022-12-09T18:13:35.695Z,98.98
2022-12-09T18:16:51.770Z,98.59
2022-12-09T18:19:54.047Z,99.49
2022-12-09T18:23:09.685Z,99.37
2022-12-09T18:26:14.265Z,99.38
2022-12-09T18:29:28.666Z,98.97
2022-12-09T18:32:35.827Z,99.09
2022-12-09T18:35:50.678Z,99.78
2022-12-09T18:38:59.207Z,99.59
2022-12-09T18:42:13.602Z,99.06
2022-12-09T18:45:15.843Z,99.42
2022-12-09T18:48:30.751Z,99.24
2022-12-09T18:51:47.597Z,98.88
2022-12-09T18:54:55.614Z,99.53
2022-12-09T18:58:04.479Z,99.60
2022-12-09T19:01:24.734Z,99.34
2022-12-09T19:04:28.998Z,99.40
2022-12-09T19:07:43.701Z,99.90
2022-12-09T19:10:54.472Z,99.87
2022-12-09T19:14:11.625Z,99.49
2022-12-09T19:17:19.650Z,99.27
2022-12-09T19:20:34.712Z,99.22
2022-12-09T19:23:38.478Z,99.81
2022-12-09T19:26:54.618Z,100.00
2022-12-09T19:29:56.650Z,99.97
2022-12-09T19:33:11.667Z,100.00
2022-12-09T19:36:13.627Z,100.00
2022-12-09T19:39:30.744Z,99.92
2022-12-09T19:42:39.670Z,100.00
2022-12-09T19:45:48.165Z,100.00
2022-12-09T19:49:03.691Z,100.00
2022-12-09T19:52:05.596Z,100.00
2022-12-09T19:55:20.686Z,100.00
2022-12-09T19:58:28.682Z,99.80
2022-12-09T20:01:47.778Z,99.98
2022-12-09T20:04:50.814Z,100.00
2022-12-09T20:08:05.717Z,99.76
2022-12-09T20:11:29.698Z,99.73
2022-12-09T20:14:39.226Z,100.00
2022-12-09T20:17:53.690Z,100.00
2022-12-09T20:21:04.234Z,100.00
2022-12-09T20:24:13.697Z,99.91
2022-12-09T20:27:22.380Z,99.99
2022-12-09T20:30:30.661Z,99.99
2022-12-09T20:33:40.183Z,99.90
2022-12-09T20:36:50.715Z,99.71
2022-12-09T20:40:06.161Z,99.55
2022-12-09T20:43:14.665Z,99.19
2022-12-09T20:46:32.725Z,99.51
2022-12-09T20:49:35.406Z,99.24
2022-12-09T20:52:49.739Z,99.36
2022-12-09T20:56:02.812Z,99.84
2022-12-09T20:59:18.814Z,99.63
2022-12-09T21:02:20.682Z,99.81
2022-12-09T21:05:35.741Z,99.56
2022-12-09T21:08:57.683Z,99.32
2022-12-09T21:12:12.711Z,99.84
2022-12-09T21:15:21.354Z,99.42
2022-12-09T21:18:29.719Z,99.45
2022-12-09T21:21:40.248Z,99.68
2022-12-09T21:24:54.761Z,99.53
2022-12-09T21:28:02.784Z,99.51
2022-12-09T21:31:18.448Z,99.70
2022-12-09T21:34:27.758Z,99.24
2022-12-09T21:37:42.740Z,99.17
2022-12-09T21:40:44.628Z,98.89
2022-12-09T21:44:00.698Z,98.96
2022-12-09T21:47:02.550Z,98.98
2022-12-09T21:50:17.746Z,98.90
2022-12-09T21:53:19.856Z,98.87
2022-12-09T21:56:37.712Z,99.12
2022-12-09T21:59:53.811Z,99.09
2022-12-09T22:03:02.716Z,99.21
2022-12-09T22:06:18.757Z,99.12
2022-12-09T22:09:27.007Z,98.78
2022-12-09T22:12:42.738Z,98.78
2022-12-09T22:15:44.538Z,98.88
2022-12-09T22:19:00.743Z,99.18
2022-12-09T22:22:09.301Z,99.25
2022-12-09T22:25:17.530Z,99.05
2022-12-09T22:28:25.771Z,98.81
2022-12-09T22:31:37.366Z,98.86
2022-12-09T22:34:51.774Z,99.07
2022-12-09T22:37:53.559Z,98.90
2022-12-09T22:41:14.818Z,98.82
2022-12-09T22:44:25.805Z,98.98
2022-12-09T22:47:43.942Z,98.84
2022-12-09T22:50:58.821Z,98.84
2022-12-09T22:54:02.311Z,99.02
2022-12-09T22:57:16.822Z,99.28
2022-12-09T23:00:18.914Z,99.28
2022-12-09T23:03:33.862Z,99.11
2022-12-09T23:06:44.806Z,99.23
2022-12-09T23:10:07.209Z,99.19
2022-12-09T23:13:09.254Z,99.46
2022-12-09T23:16:26.781Z,99.50
2022-12-09T23:19:34.764Z,99.68
2022-12-09T23:22:44.261Z,99.84
2022-12-09T23:25:52.811Z,100.00
2022-12-09T23:29:08.810Z,100.00
2022-12-09T23:32:17.536Z,100.00
2022-12-09T23:35:25.794Z,99.77
2022-12-09T23:38:41.810Z,99.84
2022-12-09T23:41:51.822Z,99.84
2022-12-09T23:45:00.541Z,99.93
2022-12-09T23:48:14.790Z,99.77
2022-12-09T23:51:27.725Z,99.85
2022-12-09T23:54:35.766Z,100.00
2022-12-09T23:57:50.841Z,100.00
